Time;durP1;ratioP1;P1;durP2;ratioP2;P2;SDS_P1;SDS_P2;PMS_P1;PMS_P2;Temp;Humidity;BMP_temperature;BMP_pressure;BME280_temperature;BME280_humidity;BME280_pressure;Samples;Min_cycle;Max_cycle;Signal;HPM_P1;HPM_P2
2022/08/12 00:43:26;;;;;;;4.47;3.13;;;22.50;91.70;;;;;;5064146;28;20194;-80
2022/08/12 00:48:37;;;;;;;8.65;3.22;;;22.40;92.00;;;;;;5057531;28;20032;-80
2022/08/12 00:51:04;;;;;;;4.95;3.17;;;22.30;92.30;;;;;;5068462;28;20029;-80
2022/08/12 00:53:30;;;;;;;7.90;3.55;;;22.30;92.30;;;;;;5070135;28;20032;-80
2022/08/12 00:55:57;;;;;;;4.40;3.03;;;22.30;92.60;;;;;;5071600;28;20464;-80
2022/08/12 00:58:27;;;;;;;5.93;3.47;;;22.30;92.80;;;;;;5068824;28;20028;-80
2022/08/12 01:01:03;;;;;;;6.75;3.40;;;22.20;92.90;;;;;;5052647;28;20543;-80
2022/08/12 01:11:27;;;;;;;5.90;3.28;;;22.20;93.10;;;;;;5063457;28;20522;-80
2022/08/12 01:11:50;;;;;;;6.55;3.58;;;22.10;93.80;;;;;;5059948;28;20043;-80
2022/08/12 01:14:22;;;;;;;10.43;3.70;;;22.10;94.00;;;;;;5067864;28;20107;-80
2022/08/12 01:16:50;;;;;;;8.38;3.70;;;22.00;94.00;;;;;;5072049;28;20031;-80
2022/08/12 01:19:20;;;;;;;5.75;3.22;;;22.00;94.10;;;;;;5070786;28;20473;-80
2022/08/12 01:22:03;;;;;;;6.35;3.47;;;22.00;94.20;;;;;;5063777;28;20032;-80
2022/08/12 01:24:47;;;;;;;6.93;3.53;;;22.00;94.20;;;;;;5057847;28;20028;-80
2022/08/12 01:27:14;;;;;;;5.78;3.72;;;22.00;94.30;;;;;;5064241;28;20024;-80
2022/08/12 01:29:45;;;;;;;7.18;3.35;;;22.00;94.50;;;;;;5067972;28;20468;-80
2022/08/12 01:32:15;;;;;;;5.22;3.50;;;22.00;94.50;;;;;;5068772;28;20024;-80
2022/08/12 01:35:07;;;;;;;5.05;3.38;;;21.90;94.70;;;;;;5060530;28;20591;-80
2022/08/12 01:37:41;;;;;;;8.43;3.70;;;21.90;94.90;;;;;;5070901;28;20084;-80
2022/08/12 01:40:09;;;;;;;7.13;3.97;;;21.80;95.00;;;;;;5070839;28;20032;-81
2022/08/12 01:42:49;;;;;;;6.13;3.72;;;21.80;95.20;;;;;;5056149;28;20068;-80
2022/08/12 01:45:23;;;;;;;6.32;3.70;;;21.80;95.40;;;;;;5057896;28;20427;-80
2022/08/12 01:48:18;;;;;;;7.65;3.50;;;21.70;95.50;;;;;;5058886;28;20063;-80
2022/08/12 01:50:56;;;;;;;6.15;3.67;;;21.70;95.60;;;;;;5070050;28;20477;-80
2022/08/12 01:53:25;;;;;;;7.65;4.03;;;21.70;95.80;;;;;;5056344;28;20439;-80
2022/08/12 01:55:53;;;;;;;5.85;3.97;;;21.60;95.90;;;;;;5075337;28;20020;-80
2022/08/12 01:59:45;;;;;;;6.57;3.83;;;21.60;96.00;;;;;;5074558;28;20115;-80
2022/08/12 02:01:23;;;;;;;7.50;3.78;;;21.60;96.10;;;;;;5070222;28;20032;-80
2022/08/12 02:13:22;;;;;;;6.00;4.00;;;21.40;96.60;;;;;;5067415;28;20035;-80
2022/08/12 02:15:57;;;;;;;7.78;4.47;;;21.40;96.80;;;;;;5075656;28;20028;-80
2022/08/12 02:19:01;;;;;;;7.47;3.67;;;21.40;97.00;;;;;;5072952;28;20094;-80
2022/08/12 02:21:34;;;;;;;6.35;4.20;;;21.40;97.10;;;;;;5066842;28;20082;-80
2022/08/12 02:24:03;;;;;;;5.75;3.70;;;21.30;97.10;;;;;;5068094;28;20029;-80
2022/08/12 02:26:32;;;;;;;6.82;4.20;;;21.30;97.30;;;;;;5055055;28;20524;-79
2022/08/12 02:28:58;;;;;;;6.10;4.18;;;21.30;97.50;;;;;;5071667;28;20068;-80
2022/08/12 02:31:27;;;;;;;6.72;4.18;;;21.30;97.60;;;;;;5063524;28;20068;-80
2022/08/12 02:33:54;;;;;;;10.43;4.70;;;21.20;97.70;;;;;;5065781;28;20553;-80
2022/08/12 02:36:20;;;;;;;6.88;4.18;;;21.20;97.90;;;;;;5054257;28;20503;-80
2022/08/12 02:38:48;;;;;;;6.55;4.10;;;21.20;97.90;;;;;;5055286;28;20575;-81
2022/08/12 02:41:15;;;;;;;9.27;4.40;;;21.20;98.00;;;;;;5059407;28;20017;-80
2022/08/12 02:43:47;;;;;;;6.90;4.25;;;21.20;98.20;;;;;;5064252;28;20059;-81
2022/08/12 02:46:16;;;;;;;7.75;4.45;;;21.20;98.10;;;;;;5073731;28;20020;-80
2022/08/12 02:48:50;;;;;;;7.85;5.03;;;21.10;98.40;;;;;;5073112;28;20385;-80
2022/08/12 02:51:27;;;;;;;8.18;4.47;;;21.10;98.40;;;;;;5059062;28;20476;-80
2022/08/12 02:53:57;;;;;;;8.52;4.55;;;21.00;98.50;;;;;;5060985;28;20060;-80
2022/08/12 02:56:26;;;;;;;4.82;4.30;;;21.00;98.60;;;;;;5067445;28;20017;-81
2022/08/12 02:58:53;;;;;;;6.95;4.50;;;21.00;98.60;;;;;;5057927;28;20032;-80
2022/08/12 03:01:22;;;;;;;7.10;4.10;;;21.00;98.70;;;;;;5063378;28;20492;-80
2022/08/12 03:03:51;;;;;;;9.95;4.20;;;21.00;98.60;;;;;;5054867;28;20318;-80
2022/08/12 03:06:22;;;;;;;6.20;4.07;;;21.00;98.70;;;;;;5066946;28;20060;-80
2022/08/12 03:08:52;;;;;;;10.38;4.78;;;21.00;99.10;;;;;;5072557;28;20040;-80
2022/08/12 03:11:30;;;;;;;9.50;4.57;;;21.00;98.70;;;;;;5059473;28;20025;-80
2022/08/12 03:14:01;;;;;;;9.70;4.70;;;21.00;98.70;;;;;;5072630;28;20029;-80
2022/08/12 03:16:29;;;;;;;10.07;4.95;;;21.00;98.90;;;;;;5072894;28;20017;-80
2022/08/12 03:18:56;;;;;;;11.02;4.88;;;21.00;99.10;;;;;;5068368;28;20075;-80
2022/08/12 03:21:23;;;;;;;5.40;4.18;;;20.90;99.10;;;;;;5058407;28;20028;-80
2022/08/12 03:23:56;;;;;;;9.05;5.45;;;20.90;99.30;;;;;;5069549;28;20035;-80
2022/08/12 03:26:23;;;;;;;9.13;5.00;;;20.90;99.20;;;;;;5072570;28;20082;-80
2022/08/12 03:28:49;;;;;;;10.63;4.97;;;20.90;99.30;;;;;;5073060;28;20330;-80
2022/08/12 03:31:17;;;;;;;8.35;5.30;;;20.90;99.50;;;;;;5064961;28;20488;-80
2022/08/12 03:33:45;;;;;;;8.50;4.60;;;20.80;99.50;;;;;;5069575;28;20025;-80
2022/08/12 03:36:17;;;;;;;7.30;4.68;;;20.80;99.50;;;;;;5067436;28;20028;-80
2022/08/12 03:38:49;;;;;;;10.80;5.47;;;20.80;99.50;;;;;;5060021;28;20053;-80
2022/08/12 03:41:34;;;;;;;9.63;5.25;;;20.80;99.60;;;;;;5058218;28;20028;-80
2022/08/12 04:00:48;;;;;;;11.52;5.40;;;20.60;99.90;;;;;;5065868;28;20069;-79
2022/08/12 04:05:58;;;;;;;11.83;5.90;;;20.60;99.90;;;;;;5071742;28;20051;-80
2022/08/12 04:08:25;;;;;;;9.18;5.28;;;20.60;99.90;;;;;;5064132;28;20021;-80
2022/08/12 04:13:39;;;;;;;8.02;5.50;;;20.60;99.90;;;;;;5066870;28;20040;-80
2022/08/12 04:16:09;;;;;;;6.40;5.30;;;20.50;99.90;;;;;;5047604;28;20112;-80
2022/08/12 04:18:37;;;;;;;8.95;5.45;;;20.50;99.90;;;;;;5055367;28;20435;-80
2022/08/12 04:21:09;;;;;;;8.27;5.10;;;20.50;99.90;;;;;;5059639;28;20063;-81
2022/08/12 04:23:41;;;;;;;8.18;5.40;;;20.50;99.90;;;;;;5071271;28;20024;-80
2022/08/12 04:26:07;;;;;;;10.48;5.32;;;20.50;99.90;;;;;;5069086;28;20020;-79
2022/08/12 04:28:33;;;;;;;7.50;4.90;;;20.50;99.90;;;;;;5058059;28;20060;-81
2022/08/12 04:31:00;;;;;;;6.65;5.15;;;20.50;99.90;;;;;;5064198;28;20036;-80
2022/08/12 04:33:25;;;;;;;8.93;5.40;;;20.50;99.90;;;;;;5061214;28;20071;-80
2022/08/12 04:35:52;;;;;;;8.65;5.30;;;20.50;99.90;;;;;;5047629;28;20089;-80
2022/08/12 04:38:18;;;;;;;8.57;5.53;;;20.50;99.90;;;;;;5057761;28;20049;-80
2022/08/12 04:40:45;;;;;;;7.70;5.13;;;20.40;99.90;;;;;;5048179;28;20018;-81
2022/08/12 04:43:11;;;;;;;10.65;5.85;;;20.40;99.90;;;;;;5060666;28;20131;-81
2022/08/12 04:45:37;;;;;;;9.18;5.10;;;20.40;99.90;;;;;;5070733;28;20051;-80
2022/08/12 04:48:04;;;;;;;10.00;5.45;;;20.40;99.90;;;;;;5065208;28;20032;-81
2022/08/12 04:50:30;;;;;;;8.00;5.57;;;20.30;99.90;;;;;;5063985;28;20021;-80
2022/08/12 04:52:59;;;;;;;8.65;6.05;;;20.30;99.90;;;;;;5039444;28;20445;-81
2022/08/12 04:55:26;;;;;;;9.95;6.35;;;20.30;99.90;;;;;;5068388;28;20020;-80
2022/08/12 04:57:52;;;;;;;7.80;5.68;;;20.30;99.90;;;;;;5069059;28;20066;-80
2022/08/12 05:00:18;;;;;;;11.73;5.47;;;20.30;99.90;;;;;;5062409;28;20020;-80
2022/08/12 05:02:44;;;;;;;9.82;5.45;;;20.30;99.90;;;;;;5056487;28;20100;-80
2022/08/12 05:05:19;;;;;;;9.90;6.00;;;20.30;99.90;;;;;;5071010;28;20392;-80
2022/08/12 05:07:46;;;;;;;8.40;6.47;;;20.30;99.90;;;;;;5057237;28;20523;-80
2022/08/12 05:10:12;;;;;;;10.15;5.68;;;20.30;99.90;;;;;;5064355;28;20079;-80
2022/08/12 05:12:43;;;;;;;11.07;6.22;;;20.30;99.90;;;;;;5057496;28;20033;-80
2022/08/12 05:15:12;;;;;;;10.55;5.82;;;20.30;99.90;;;;;;5056471;28;20026;-80
2022/08/12 05:17:40;;;;;;;13.00;6.15;;;20.30;99.90;;;;;;5067410;28;20027;-80
2022/08/12 05:20:08;;;;;;;8.18;6.28;;;20.30;99.90;;;;;;5061262;28;20021;-80
2022/08/12 05:22:34;;;;;;;11.18;6.50;;;20.30;99.90;;;;;;5051181;28;20021;-80
2022/08/12 05:25:00;;;;;;;9.60;6.80;;;20.30;99.90;;;;;;5059360;28;20024;-80
2022/08/12 05:27:26;;;;;;;11.55;6.40;;;20.30;99.90;;;;;;5061456;28;20033;-80
2022/08/12 05:29:51;;;;;;;10.70;6.72;;;20.30;99.90;;;;;;5064306;28;20035;-80
2022/08/12 05:32:19;;;;;;;7.47;5.80;;;20.30;99.90;;;;;;5067506;28;20017;-80
2022/08/12 05:34:48;;;;;;;8.10;5.88;;;20.30;99.90;;;;;;5067479;28;20040;-80
2022/08/12 05:37:15;;;;;;;8.70;6.22;;;20.30;99.90;;;;;;5069428;28;20045;-80
2022/08/12 05:39:41;;;;;;;9.05;5.45;;;20.40;99.90;;;;;;5069153;28;20080;-81
2022/08/12 05:42:08;;;;;;;9.50;5.40;;;20.40;99.90;;;;;;5069613;28;20059;-81
2022/08/12 05:44:34;;;;;;;9.98;6.32;;;20.40;99.90;;;;;;5067969;28;20424;-81
2022/08/12 05:47:00;;;;;;;8.40;6.32;;;20.50;99.90;;;;;;5062907;28;20024;-81
2022/08/12 05:49:28;;;;;;;10.40;5.80;;;20.50;99.90;;;;;;5066206;28;20359;-80
2022/08/12 05:51:54;;;;;;;8.05;5.45;;;20.50;99.90;;;;;;5063236;28;20086;-80
2022/08/12 05:54:20;;;;;;;10.68;6.55;;;20.60;99.90;;;;;;5070310;28;20035;-80
2022/08/12 05:56:47;;;;;;;9.82;6.53;;;20.60;99.90;;;;;;5070551;28;20029;-80
2022/08/12 05:59:13;;;;;;;7.72;5.50;;;20.60;99.90;;;;;;5068945;28;20020;-80
2022/08/12 06:01:40;;;;;;;14.13;6.53;;;20.70;99.90;;;;;;5068978;28;20035;-80
2022/08/12 06:04:08;;;;;;;12.05;6.25;;;20.70;99.90;;;;;;5069380;28;20078;-80
2022/08/12 06:06:40;;;;;;;9.80;6.10;;;20.70;99.90;;;;;;5062428;28;20545;-80
2022/08/12 06:09:08;;;;;;;11.68;6.28;;;20.70;99.90;;;;;;5057549;28;20079;-80
2022/08/12 06:11:33;;;;;;;10.13;6.28;;;20.80;99.90;;;;;;5055369;28;20036;-80
2022/08/12 06:13:59;;;;;;;9.80;6.30;;;20.80;99.90;;;;;;5069891;28;20166;-80
2022/08/12 06:16:25;;;;;;;11.35;6.72;;;20.80;99.90;;;;;;5067719;28;20013;-80
2022/08/12 06:18:51;;;;;;;11.30;6.40;;;20.90;99.90;;;;;;5072091;28;20220;-79
2022/08/12 06:21:20;;;;;;;9.50;6.22;;;20.90;99.90;;;;;;5068209;28;20033;-79
2022/08/12 06:23:46;;;;;;;7.13;6.20;;;20.90;99.90;;;;;;5071841;28;20016;-79
2022/08/12 06:26:15;;;;;;;12.90;6.13;;;20.90;99.90;;;;;;5070286;28;20013;-79
2022/08/12 06:28:42;;;;;;;12.85;6.20;;;20.90;99.90;;;;;;5070452;28;20027;-74
2022/08/12 06:31:14;;;;;;;7.75;5.85;;;21.00;99.90;;;;;;5062597;28;20044;-74
2022/08/12 06:33:43;;;;;;;7.95;6.18;;;21.00;99.90;;;;;;5069506;28;20096;-74
2022/08/12 06:36:09;;;;;;;10.02;6.15;;;21.10;99.90;;;;;;5068561;28;21601;-74
2022/08/12 06:38:35;;;;;;;10.35;6.15;;;21.10;99.90;;;;;;5069203;28;20056;-74
2022/08/12 06:43:50;;;;;;;12.60;6.37;;;21.20;99.90;;;;;;5066792;28;20065;-74
2022/08/12 06:46:15;;;;;;;11.02;6.72;;;21.20;99.90;;;;;;5068044;28;20020;-74
2022/08/12 06:48:42;;;;;;;10.65;6.50;;;21.30;99.90;;;;;;5072638;28;20094;-74
2022/08/12 06:51:09;;;;;;;10.77;6.05;;;21.30;99.90;;;;;;5063962;28;20020;-74
2022/08/12 06:53:35;;;;;;;13.30;6.28;;;21.40;99.90;;;;;;5071674;28;20028;-74
2022/08/12 06:56:00;;;;;;;13.68;6.40;;;21.50;99.90;;;;;;5066476;28;20392;-74
2022/08/12 06:58:27;;;;;;;10.68;6.72;;;21.50;99.90;;;;;;5068662;28;20392;-74
2022/08/12 07:00:56;;;;;;;10.02;6.00;;;21.60;99.90;;;;;;5072715;28;20051;-74
2022/08/12 07:03:29;;;;;;;7.43;5.53;;;21.60;99.90;;;;;;5065918;28;20063;-73
2022/08/12 07:05:58;;;;;;;11.25;6.30;;;21.70;99.90;;;;;;5071951;28;20423;-73
2022/08/12 07:08:29;;;;;;;14.57;6.95;;;21.80;99.90;;;;;;5068417;28;20111;-73
2022/08/12 07:10:58;;;;;;;9.77;6.10;;;21.90;99.90;;;;;;5071636;28;20041;-73
2022/08/12 07:13:37;;;;;;;8.63;5.78;;;22.00;99.90;;;;;;5072702;28;20027;-73
2022/08/12 07:16:06;;;;;;;11.57;5.85;;;22.10;99.90;;;;;;5072753;28;20046;-74
2022/08/12 07:18:32;;;;;;;11.50;6.30;;;22.20;99.90;;;;;;5058827;28;20559;-73
2022/08/12 07:21:01;;;;;;;10.25;5.82;;;22.30;99.90;;;;;;5068356;28;20396;-74
2022/08/12 07:23:27;;;;;;;10.75;5.95;;;22.40;99.80;;;;;;5069597;28;20090;-74
2022/08/12 07:25:53;;;;;;;12.32;6.68;;;22.60;99.50;;;;;;5038290;28;20021;-74
2022/08/12 07:28:24;;;;;;;10.63;6.40;;;22.70;99.10;;;;;;5061549;28;20040;-74
2022/08/12 07:30:52;;;;;;;10.48;5.65;;;22.80;98.60;;;;;;5064916;28;20028;-74
2022/08/12 07:33:21;;;;;;;8.13;5.70;;;23.00;98.20;;;;;;5065282;28;20054;-75
2022/08/12 07:35:48;;;;;;;9.23;6.40;;;23.10;98.00;;;;;;5072918;28;20029;-73
2022/08/12 07:38:35;;;;;;;11.88;6.72;;;23.20;97.40;;;;;;5074278;28;20040;-74
2022/08/12 07:41:09;;;;;;;10.15;6.50;;;23.40;96.70;;;;;;5051204;28;20071;-75
2022/08/12 07:43:38;;;;;;;10.98;6.57;;;23.50;96.50;;;;;;5068456;28;20028;-75
2022/08/12 07:46:06;;;;;;;7.95;6.05;;;23.70;96.10;;;;;;5070805;28;20492;-74
2022/08/12 07:48:50;;;;;;;11.25;6.85;;;23.90;95.80;;;;;;5069224;28;20023;-74
2022/08/12 07:51:16;;;;;;;10.60;5.65;;;24.00;95.40;;;;;;5070536;28;20016;-74
2022/08/12 07:53:42;;;;;;;10.85;5.70;;;24.20;95.10;;;;;;5072118;28;20656;-74
2022/08/12 07:56:09;;;;;;;16.80;5.90;;;24.40;94.80;;;;;;5073160;28;20088;-74
2022/08/12 07:58:38;;;;;;;8.68;6.10;;;24.60;94.30;;;;;;5072384;28;20036;-74
2022/08/12 08:01:11;;;;;;;10.63;6.05;;;24.80;93.80;;;;;;5051673;28;20082;-74
2022/08/12 08:03:37;;;;;;;8.43;6.00;;;24.90;93.10;;;;;;5072478;28;20054;-75
2022/08/12 08:06:09;;;;;;;11.38;6.18;;;25.10;92.50;;;;;;5074196;28;20123;-75
2022/08/12 08:08:35;;;;;;;12.18;6.28;;;25.30;92.10;;;;;;5054615;28;20104;-75
2022/08/12 08:13:46;;;;;;;10.68;5.97;;;25.50;91.10;;;;;;5077395;28;20495;-75
2022/08/12 08:16:15;;;;;;;11.98;6.57;;;25.80;90.80;;;;;;5073902;28;20059;-81
2022/08/12 08:18:42;;;;;;;10.73;6.43;;;25.90;90.30;;;;;;5073529;28;20032;-74
2022/08/12 08:21:09;;;;;;;10.60;5.68;;;26.10;89.50;;;;;;5067231;28;20112;-75
2022/08/12 08:26:21;;;;;;;11.85;7.32;;;26.40;88.00;;;;;;5070226;28;20055;-76
2022/08/12 08:28:47;;;;;;;12.35;6.53;;;26.60;86.80;;;;;;5071635;28;20044;-76
2022/08/12 08:31:13;;;;;;;11.65;6.63;;;26.70;85.60;;;;;;5071811;28;20078;-76
2022/08/12 08:33:40;;;;;;;10.43;6.75;;;26.80;84.80;;;;;;5072289;28;20081;-77
2022/08/12 08:36:06;;;;;;;9.02;6.68;;;27.00;84.20;;;;;;5070692;28;20065;-76
2022/08/12 08:38:32;;;;;;;7.85;5.53;;;27.20;82.70;;;;;;5071506;28;20040;-77
2022/08/12 08:43:42;;;;;;;9.57;5.20;;;27.40;81.10;;;;;;5070401;28;20154;-75
2022/08/12 08:46:07;;;;;;;11.65;6.93;;;27.50;80.80;;;;;;5068978;28;20497;-76
2022/08/12 08:48:33;;;;;;;11.88;6.47;;;27.80;79.90;;;;;;5070262;28;20020;-76
2022/08/12 08:51:00;;;;;;;11.57;5.90;;;27.90;78.40;;;;;;5050724;28;20047;-75
2022/08/12 08:53:26;;;;;;;9.90;6.18;;;28.00;77.60;;;;;;5069862;28;20021;-74
2022/08/12 08:55:53;;;;;;;12.40;6.47;;;28.10;76.70;;;;;;5069328;28;20574;-74
2022/08/12 08:58:21;;;;;;;13.45;6.60;;;28.30;75.70;;;;;;5070852;28;20020;-73
2022/08/12 09:00:50;;;;;;;15.80;6.32;;;28.50;74.10;;;;;;5068829;28;20025;-75
2022/08/12 09:03:17;;;;;;;11.18;6.10;;;28.60;72.60;;;;;;5067746;28;20107;-75
2022/08/12 09:05:43;;;;;;;15.13;6.80;;;28.70;71.80;;;;;;5069585;28;20368;-75
2022/08/12 09:08:08;;;;;;;12.80;6.50;;;28.90;71.60;;;;;;5069066;28;20021;-75
2022/08/12 09:10:34;;;;;;;14.30;5.82;;;29.00;70.70;;;;;;5068350;28;20485;-75
2022/08/12 09:15:47;;;;;;;13.18;6.35;;;29.30;69.60;;;;;;5069994;28;20028;-75
2022/08/12 09:18:14;;;;;;;12.55;5.55;;;29.50;68.10;;;;;;5051683;28;20430;-75
2022/08/12 09:20:40;;;;;;;8.32;6.10;;;29.60;67.20;;;;;;5068389;28;20016;-76
2022/08/12 09:23:11;;;;;;;14.95;6.65;;;29.80;65.80;;;;;;5070117;28;20500;-76
2022/08/12 09:25:40;;;;;;;11.48;5.63;;;29.90;65.00;;;;;;5051489;28;20048;-76
2022/08/12 09:28:09;;;;;;;14.73;6.05;;;29.90;63.90;;;;;;5069133;28;20024;-77
2022/08/12 09:30:43;;;;;;;11.55;5.80;;;30.00;63.90;;;;;;5067455;28;20112;-75
2022/08/12 09:33:11;;;;;;;9.25;4.20;;;30.20;63.20;;;;;;5068687;28;20105;-75
2022/08/12 09:35:42;;;;;;;9.98;4.50;;;30.30;62.50;;;;;;5070397;28;20023;-75
2022/08/12 09:38:10;;;;;;;9.45;3.88;;;30.40;60.30;;;;;;5071396;28;20070;-75
2022/08/12 09:40:36;;;;;;;9.63;4.10;;;30.50;58.50;;;;;;5067658;28;20024;-76
2022/08/12 09:45:47;;;;;;;14.23;5.80;;;30.90;57.40;;;;;;5068787;28;20877;-77
2022/08/12 09:48:16;;;;;;;9.18;5.18;;;30.90;57.60;;;;;;5062746;28;20028;-76
2022/08/12 09:50:44;;;;;;;8.38;4.50;;;31.00;57.30;;;;;;5064127;28;20056;-76
2022/08/12 09:53:15;;;;;;;13.40;5.65;;;31.10;56.90;;;;;;5052143;28;20075;-76
2022/08/12 09:55:51;;;;;;;10.32;5.20;;;31.20;56.60;;;;;;5069434;28;20078;-76
2022/08/12 09:58:18;;;;;;;9.90;5.18;;;31.40;56.50;;;;;;5049787;28;20021;-74
2022/08/12 10:00:46;;;;;;;11.40;4.78;;;31.40;55.90;;;;;;5070504;28;20020;-75
2022/08/12 10:03:13;;;;;;;9.30;4.78;;;31.50;55.70;;;;;;5064713;28;20020;-76
2022/08/12 10:05:44;;;;;;;9.07;4.57;;;31.60;55.20;;;;;;5065454;28;20016;-74
2022/08/12 10:08:13;;;;;;;10.88;5.10;;;31.70;55.20;;;;;;5051802;28;20380;-75
2022/08/12 10:13:41;;;;;;;9.73;4.25;;;31.80;53.90;;;;;;5054508;28;20032;-74
2022/08/12 10:16:18;;;;;;;8.65;5.20;;;31.80;53.60;;;;;;5072656;28;20036;-74
2022/08/12 10:18:46;;;;;;;11.10;4.40;;;31.90;53.30;;;;;;5070983;28;20025;-75
2022/08/12 10:21:15;;;;;;;10.80;5.32;;;32.00;53.30;;;;;;5070180;28;20036;-73
2022/08/12 10:23:46;;;;;;;11.07;4.22;;;32.00;53.10;;;;;;5070787;28;20561;-73
2022/08/12 10:31:45;;;;;;;6.93;3.90;;;32.30;52.00;;;;;;5069584;28;20085;-75
2022/08/12 10:34:14;;;;;;;10.77;4.22;;;32.40;51.90;;;;;;5070632;28;20025;-74
2022/08/12 10:36:41;;;;;;;7.13;4.40;;;32.60;51.50;;;;;;5071354;28;20104;-73
2022/08/12 10:39:11;;;;;;;9.73;4.18;;;32.60;51.40;;;;;;5069650;28;20575;-74
2022/08/12 10:44:22;;;;;;;8.80;4.00;;;32.80;50.80;;;;;;5072118;28;20081;-73
2022/08/12 10:46:50;;;;;;;12.35;3.42;;;32.90;50.30;;;;;;5070883;28;20274;-73
2022/08/12 10:49:19;;;;;;;5.85;4.20;;;33.00;48.90;;;;;;5064525;28;20032;-73
2022/08/12 10:51:47;;;;;;;10.63;4.25;;;33.00;48.60;;;;;;5062517;28;20082;-74
2022/08/12 10:54:14;;;;;;;80.85;13.93;;;33.00;48.90;;;;;;5071157;28;20372;-74
2022/08/12 10:56:44;;;;;;;25.45;6.65;;;33.10;48.70;;;;;;5072871;28;20406;-74
2022/08/12 10:59:09;;;;;;;8.40;3.40;;;33.10;48.70;;;;;;5072599;28;20029;-72
2022/08/12 11:01:35;;;;;;;12.23;3.33;;;33.20;47.40;;;;;;5074078;28;20028;-74
2022/08/12 11:04:01;;;;;;;7.65;3.25;;;33.30;46.10;;;;;;5064205;28;20028;-73
2022/08/12 11:06:27;;;;;;;9.90;3.50;;;33.30;45.70;;;;;;5070086;28;20020;-72
2022/08/12 11:08:55;;;;;;;7.53;3.05;;;33.40;45.60;;;;;;5057378;28;20083;-73
2022/08/12 11:11:21;;;;;;;11.38;3.38;;;33.50;45.00;;;;;;5073763;28;20021;-73
2022/08/12 11:13:47;;;;;;;8.30;3.35;;;33.60;44.20;;;;;;5038183;28;20716;-73
2022/08/12 11:16:13;;;;;;;10.05;3.40;;;33.60;43.10;;;;;;5065138;28;20021;-73
2022/08/12 11:18:39;;;;;;;4.88;2.85;;;33.60;42.90;;;;;;5074489;28;20473;-73
2022/08/12 11:21:05;;;;;;;5.93;2.45;;;33.70;42.30;;;;;;5072738;28;20028;-74
2022/08/12 11:23:31;;;;;;;8.50;2.70;;;33.70;41.60;;;;;;5056433;28;20119;-73
2022/08/12 11:25:57;;;;;;;5.35;2.80;;;33.70;41.40;;;;;;5046462;28;20025;-74
2022/08/12 11:28:22;;;;;;;7.13;3.20;;;33.70;40.80;;;;;;5071137;28;20531;-72
2022/08/12 11:30:48;;;;;;;7.85;3.05;;;33.70;41.10;;;;;;5056211;28;20473;-73
2022/08/12 11:33:13;;;;;;;6.80;3.13;;;33.80;41.40;;;;;;5073264;28;20097;-73
2022/08/12 11:35:42;;;;;;;6.95;2.75;;;33.90;41.20;;;;;;5072534;28;20068;-74
2022/08/12 11:38:11;;;;;;;6.03;3.15;;;34.00;41.10;;;;;;5072361;28;20076;-74
2022/08/12 11:40:37;;;;;;;5.47;2.67;;;34.10;41.10;;;;;;5074650;28;20145;-74
2022/08/12 11:43:02;;;;;;;5.93;2.97;;;34.20;40.90;;;;;;5073884;28;20082;-75
2022/08/12 11:45:29;;;;;;;6.93;2.95;;;34.20;40.50;;;;;;5065968;28;20026;-74
2022/08/12 11:47:56;;;;;;;5.03;3.03;;;34.20;40.50;;;;;;5071224;28;20474;-76
2022/08/12 11:50:22;;;;;;;7.20;3.20;;;34.20;40.50;;;;;;5073277;28;20543;-74
2022/08/12 11:52:49;;;;;;;6.65;2.90;;;34.20;40.50;;;;;;5052294;28;20024;-74
2022/08/12 11:55:16;;;;;;;9.50;3.10;;;34.20;40.10;;;;;;5073793;28;20032;-78
2022/08/12 11:57:52;;;;;;;3.35;2.85;;;34.10;40.30;;;;;;5079934;28;20076;-76
2022/08/12 12:00:19;;;;;;;6.25;3.15;;;34.10;40.20;;;;;;5066698;28;20042;-75
2022/08/12 12:02:45;;;;;;;7.35;3.28;;;34.10;40.30;;;;;;5074292;28;20499;-72
2022/08/12 12:05:11;;;;;;;3.80;2.90;;;34.20;40.50;;;;;;5078483;28;20055;-72
2022/08/12 12:07:38;;;;;;;7.30;3.30;;;34.20;39.70;;;;;;5068848;28;20025;-72
2022/08/12 12:10:04;;;;;;;7.20;3.55;;;34.20;39.80;;;;;;5073417;28;20025;-72
2022/08/12 12:12:30;;;;;;;10.00;3.40;;;34.20;39.70;;;;;;5074130;28;20422;-75
2022/08/12 12:14:55;;;;;;;6.80;3.40;;;34.30;39.70;;;;;;5060550;28;20032;-76
2022/08/12 12:17:23;;;;;;;9.75;3.50;;;34.30;39.60;;;;;;5075357;28;20016;-76
2022/08/12 12:19:48;;;;;;;8.52;3.25;;;34.40;39.60;;;;;;5071539;28;20472;-76
2022/08/12 12:22:14;;;;;;;5.45;3.20;;;34.50;39.80;;;;;;5055716;28;20116;-76
2022/08/12 12:24:45;;;;;;;4.75;2.83;;;34.50;39.10;;;;;;5072031;28;20771;-77
2022/08/12 12:27:11;;;;;;;9.27;3.30;;;34.60;38.90;;;;;;5071359;28;20021;-75
2022/08/12 12:29:36;;;;;;;6.32;2.95;;;34.70;38.80;;;;;;5073148;28;20094;-75
2022/08/12 12:32:02;;;;;;;7.47;3.22;;;34.80;39.50;;;;;;5070327;28;20434;-74
2022/08/12 12:34:28;;;;;;;5.00;2.85;;;34.80;38.40;;;;;;5073940;28;20456;-75
2022/08/12 12:36:53;;;;;;;11.85;3.42;;;34.80;38.40;;;;;;5079398;28;20020;-76
2022/08/12 12:39:19;;;;;;;6.55;3.20;;;34.80;38.30;;;;;;5073072;28;20078;-74
2022/08/12 12:41:45;;;;;;;5.95;3.30;;;34.80;38.00;;;;;;5069437;28;20366;-75
2022/08/12 12:44:10;;;;;;;9.35;3.55;;;34.80;37.90;;;;;;5057629;28;20457;-75
2022/08/12 12:46:36;;;;;;;6.28;3.38;;;34.80;38.00;;;;;;5071922;28;20147;-75
2022/08/12 12:49:02;;;;;;;5.47;3.17;;;34.80;37.60;;;;;;5071473;28;20385;-75
2022/08/12 12:51:27;;;;;;;6.15;2.90;;;34.80;37.70;;;;;;5074729;28;20025;-75
2022/08/12 12:53:54;;;;;;;6.47;3.28;;;34.90;37.70;;;;;;5061938;28;20495;-76
2022/08/12 12:56:22;;;;;;;3.70;3.08;;;35.00;37.30;;;;;;5074350;28;20587;-75
2022/08/12 12:58:51;;;;;;;8.57;2.97;;;35.00;36.80;;;;;;5070000;28;20035;-76
2022/08/12 13:01:25;;;;;;;11.18;3.50;;;35.00;36.80;;;;;;5068944;28;20457;-76
2022/08/12 13:03:55;;;;;;;6.72;3.30;;;35.00;36.70;;;;;;5074673;28;20337;-76
2022/08/12 13:06:24;;;;;;;5.82;3.15;;;35.00;36.20;;;;;;5072778;28;20056;-75
2022/08/12 13:08:52;;;;;;;8.55;2.75;;;35.00;36.40;;;;;;5053646;28;20028;-75
2022/08/12 13:11:19;;;;;;;6.47;3.05;;;35.00;36.60;;;;;;5033978;28;20120;-75
2022/08/12 13:13:49;;;;;;;4.90;3.30;;;35.10;36.20;;;;;;5067811;28;20032;-75
2022/08/12 13:16:22;;;;;;;3.92;3.20;;;35.10;36.50;;;;;;5073050;28;20491;-83
2022/08/12 13:18:49;;;;;;;6.70;3.25;;;35.10;36.10;;;;;;5076361;28;20032;-74
2022/08/12 13:21:17;;;;;;;7.72;3.20;;;35.20;36.10;;;;;;5053872;28;20021;-79
2022/08/12 13:23:48;;;;;;;6.03;3.20;;;35.30;36.50;;;;;;5070295;28;20488;-77
2022/08/12 13:26:16;;;;;;;6.50;3.20;;;35.30;36.10;;;;;;5041062;28;20109;-75
2022/08/12 13:28:46;;;;;;;7.05;3.20;;;35.30;36.20;;;;;;5050543;28;20039;-75
2022/08/12 13:31:17;;;;;;;9.98;3.30;;;35.40;36.30;;;;;;5068031;28;20067;-75
2022/08/12 13:33:43;;;;;;;9.60;3.10;;;35.50;36.40;;;;;;5072144;28;20020;-76
2022/08/12 13:36:09;;;;;;;5.15;3.30;;;35.50;36.10;;;;;;5071417;28;20100;-77
2022/08/12 13:38:40;;;;;;;3.80;3.17;;;35.50;35.60;;;;;;5071001;28;20048;-78
2022/08/12 13:41:07;;;;;;;8.50;3.22;;;35.50;36.10;;;;;;5042334;28;20064;-76
2022/08/12 13:43:33;;;;;;;5.20;3.20;;;35.50;35.90;;;;;;5041318;28;20029;-76
2022/08/12 13:46:00;;;;;;;6.18;3.25;;;35.50;35.70;;;;;;5068343;28;20020;-77
2022/08/12 13:48:26;;;;;;;5.13;3.30;;;35.50;35.50;;;;;;5052301;28;20044;-76
2022/08/12 13:50:52;;;;;;;5.07;3.42;;;35.50;35.70;;;;;;5070202;28;20036;-76
2022/08/12 13:53:18;;;;;;;4.43;3.25;;;35.40;35.80;;;;;;5059203;28;20020;-77
2022/08/12 13:55:48;;;;;;;8.68;3.28;;;35.50;36.20;;;;;;5070228;28;20472;-77
2022/08/12 13:58:17;;;;;;;8.85;3.13;;;35.50;35.60;;;;;;5065638;28;20029;-77
2022/08/12 14:00:52;;;;;;;6.60;3.13;;;35.50;35.90;;;;;;5058056;28;20021;-76
2022/08/12 14:03:19;;;;;;;4.22;3.17;;;35.60;35.70;;;;;;5061303;28;20062;-76
2022/08/12 14:05:45;;;;;;;9.38;3.05;;;35.60;35.50;;;;;;5066358;28;20032;-76
2022/08/12 14:08:13;;;;;;;5.85;3.38;;;35.70;35.60;;;;;;5058262;28;20420;-77
2022/08/12 14:10:54;;;;;;;6.68;3.33;;;35.80;35.70;;;;;;5069977;28;20025;-78
2022/08/12 14:13:23;;;;;;;7.07;3.50;;;35.90;35.60;;;;;;5055309;28;20045;-77
2022/08/12 14:15:54;;;;;;;7.05;3.75;;;35.90;36.00;;;;;;5059280;28;20096;-74
2022/08/12 14:18:22;;;;;;;5.88;3.70;;;36.00;36.50;;;;;;5067718;28;20526;-76
2022/08/12 14:20:50;;;;;;;7.32;3.47;;;36.00;36.90;;;;;;5070275;28;20017;-76
2022/08/12 14:23:18;;;;;;;6.95;3.70;;;36.00;37.00;;;;;;5070369;28;20043;-76
2022/08/12 14:25:45;;;;;;;6.30;3.55;;;36.00;37.50;;;;;;5069866;28;20020;-77
2022/08/12 14:28:15;;;;;;;9.55;3.65;;;36.00;37.10;;;;;;5056036;28;20380;-76
2022/08/12 14:30:57;;;;;;;6.25;3.53;;;35.80;36.80;;;;;;5069844;28;20500;-75
2022/08/12 14:33:30;;;;;;;6.57;3.50;;;35.70;37.20;;;;;;5049911;28;20062;-76
2022/08/12 14:35:56;;;;;;;5.45;3.30;;;35.70;37.60;;;;;;5058968;28;20105;-76
2022/08/12 14:38:39;;;;;;;7.55;3.60;;;35.70;37.70;;;;;;5037484;28;20060;-77
2022/08/12 14:41:10;;;;;;;10.75;3.78;;;35.70;37.70;;;;;;5056929;28;20020;-75